Aviation Digital Data Service (ADDS)

Output produced by TAFs form (1532 UTC 31 July 2014)
found at http://aviationweather.gov/adds/tafs/
 
KCNM 311517Z 3115/0112 35010KT P6SM SCT035 OVC110 
     TEMPO 3115/3117 3SM -TSRA BKN015 BKN040CB 
     FM311800 02008KT P6SM SCT050 BKN130